sensor_id;sensor_type;location;lat;lon;timestamp;P1;durP1;ratioP1;P2;durP2;ratioP2
17794;SDS011;9021;50.882;4.326;2022-07-18T00:01:34;3.70;;;1.55;;
17794;SDS011;9021;50.882;4.326;2022-07-18T00:04:00;2.95;;;1.73;;
17794;SDS011;9021;50.882;4.326;2022-07-18T00:06:26;6.40;;;1.90;;
17794;SDS011;9021;50.882;4.326;2022-07-18T00:08:52;2.97;;;1.60;;
17794;SDS011;9021;50.882;4.326;2022-07-18T00:11:18;5.25;;;1.75;;
17794;SDS011;9021;50.882;4.326;2022-07-18T00:16:09;2.00;;;1.38;;
17794;SDS011;9021;50.882;4.326;2022-07-18T00:18:35;3.28;;;1.33;;
17794;SDS011;9021;50.882;4.326;2022-07-18T00:21:01;1.65;;;1.20;;
17794;SDS011;9021;50.882;4.326;2022-07-18T00:23:26;7.00;;;1.63;;
17794;SDS011;9021;50.882;4.326;2022-07-18T00:25:52;2.35;;;1.45;;
17794;SDS011;9021;50.882;4.326;2022-07-18T00:28:18;3.08;;;1.40;;
17794;SDS011;9021;50.882;4.326;2022-07-18T00:33:09;1.98;;;1.30;;
17794;SDS011;9021;50.882;4.326;2022-07-18T00:35:35;2.10;;;1.40;;
17794;SDS011;9021;50.882;4.326;2022-07-18T00:38:01;3.00;;;1.60;;
17794;SDS011;9021;50.882;4.326;2022-07-18T00:40:28;3.85;;;1.15;;
17794;SDS011;9021;50.882;4.326;2022-07-18T00:42:54;6.50;;;1.55;;
17794;SDS011;9021;50.882;4.326;2022-07-18T00:45:19;4.03;;;1.50;;
17794;SDS011;9021;50.882;4.326;2022-07-18T00:47:45;3.33;;;1.45;;
17794;SDS011;9021;50.882;4.326;2022-07-18T00:50:11;3.92;;;1.70;;
17794;SDS011;9021;50.882;4.326;2022-07-18T00:52:37;4.40;;;1.50;;
17794;SDS011;9021;50.882;4.326;2022-07-18T00:55:06;2.47;;;1.20;;
17794;SDS011;9021;50.882;4.326;2022-07-18T00:57:32;2.47;;;1.27;;
17794;SDS011;9021;50.882;4.326;2022-07-18T00:59:58;4.22;;;1.50;;
17794;SDS011;9021;50.882;4.326;2022-07-18T01:07:34;5.75;;;1.88;;
17794;SDS011;9021;50.882;4.326;2022-07-18T01:10:00;4.28;;;1.60;;
17794;SDS011;9021;50.882;4.326;2022-07-18T01:14:52;3.30;;;1.30;;
17794;SDS011;9021;50.882;4.326;2022-07-18T01:17:18;3.65;;;1.60;;
17794;SDS011;9021;50.882;4.326;2022-07-18T01:19:45;2.72;;;1.40;;
17794;SDS011;9021;50.882;4.326;2022-07-18T01:22:12;5.63;;;1.58;;
17794;SDS011;9021;50.882;4.326;2022-07-18T01:24:39;6.40;;;1.92;;
17794;SDS011;9021;50.882;4.326;2022-07-18T01:27:05;2.08;;;1.38;;
17794;SDS011;9021;50.882;4.326;2022-07-18T01:29:31;4.70;;;1.90;;
17794;SDS011;9021;50.882;4.326;2022-07-18T01:32:03;2.88;;;1.40;;
17794;SDS011;9021;50.882;4.326;2022-07-18T01:34:30;4.20;;;1.58;;
17794;SDS011;9021;50.882;4.326;2022-07-18T01:36:55;4.50;;;1.45;;
17794;SDS011;9021;50.882;4.326;2022-07-18T01:39:21;2.97;;;1.42;;
17794;SDS011;9021;50.882;4.326;2022-07-18T01:41:54;3.85;;;1.67;;
17794;SDS011;9021;50.882;4.326;2022-07-18T01:44:23;2.88;;;1.38;;
17794;SDS011;9021;50.882;4.326;2022-07-18T01:46:49;4.30;;;1.60;;
17794;SDS011;9021;50.882;4.326;2022-07-18T01:51:45;2.72;;;1.20;;
17794;SDS011;9021;50.882;4.326;2022-07-18T01:54:15;2.65;;;1.50;;
17794;SDS011;9021;50.882;4.326;2022-07-18T01:56:41;5.45;;;1.83;;
17794;SDS011;9021;50.882;4.326;2022-07-18T01:59:07;3.78;;;1.38;;
17794;SDS011;9021;50.882;4.326;2022-07-18T02:01:32;2.47;;;1.45;;
17794;SDS011;9021;50.882;4.326;2022-07-18T02:03:58;3.55;;;1.70;;
17794;SDS011;9021;50.882;4.326;2022-07-18T02:06:23;4.20;;;1.70;;
17794;SDS011;9021;50.882;4.326;2022-07-18T02:08:49;5.15;;;1.45;;
17794;SDS011;9021;50.882;4.326;2022-07-18T02:11:15;3.05;;;1.15;;
17794;SDS011;9021;50.882;4.326;2022-07-18T02:13:40;1.77;;;1.13;;
17794;SDS011;9021;50.882;4.326;2022-07-18T02:16:06;1.95;;;1.30;;
17794;SDS011;9021;50.882;4.326;2022-07-18T02:20:58;4.10;;;2.03;;
17794;SDS011;9021;50.882;4.326;2022-07-18T02:23:25;5.78;;;1.50;;
17794;SDS011;9021;50.882;4.326;2022-07-18T02:28:17;3.35;;;1.50;;
17794;SDS011;9021;50.882;4.326;2022-07-18T02:30:42;2.22;;;1.38;;
17794;SDS011;9021;50.882;4.326;2022-07-18T02:33:08;4.63;;;1.73;;
17794;SDS011;9021;50.882;4.326;2022-07-18T02:35:34;3.55;;;1.60;;
17794;SDS011;9021;50.882;4.326;2022-07-18T02:38:00;4.45;;;1.50;;
17794;SDS011;9021;50.882;4.326;2022-07-18T02:40:25;4.22;;;1.60;;
17794;SDS011;9021;50.882;4.326;2022-07-18T02:42:51;7.32;;;1.85;;
17794;SDS011;9021;50.882;4.326;2022-07-18T02:45:17;6.15;;;1.42;;
17794;SDS011;9021;50.882;4.326;2022-07-18T02:47:43;6.25;;;1.92;;
17794;SDS011;9021;50.882;4.326;2022-07-18T02:50:09;3.60;;;1.40;;
17794;SDS011;9021;50.882;4.326;2022-07-18T02:52:35;7.22;;;1.65;;
17794;SDS011;9021;50.882;4.326;2022-07-18T02:55:02;2.95;;;1.77;;
17794;SDS011;9021;50.882;4.326;2022-07-18T02:57:28;5.68;;;1.50;;
17794;SDS011;9021;50.882;4.326;2022-07-18T02:59:54;6.25;;;1.60;;
17794;SDS011;9021;50.882;4.326;2022-07-18T03:02:20;3.50;;;1.35;;
17794;SDS011;9021;50.882;4.326;2022-07-18T03:04:46;8.20;;;2.10;;
17794;SDS011;9021;50.882;4.326;2022-07-18T03:07:11;3.15;;;1.38;;
17794;SDS011;9021;50.882;4.326;2022-07-18T03:09:37;3.13;;;1.48;;
17794;SDS011;9021;50.882;4.326;2022-07-18T03:12:03;5.82;;;1.90;;
17794;SDS011;9021;50.882;4.326;2022-07-18T03:14:29;7.18;;;1.60;;
17794;SDS011;9021;50.882;4.326;2022-07-18T03:16:54;3.42;;;1.70;;
17794;SDS011;9021;50.882;4.326;2022-07-18T03:19:20;5.63;;;1.70;;
17794;SDS011;9021;50.882;4.326;2022-07-18T03:24:12;2.85;;;1.40;;
17794;SDS011;9021;50.882;4.326;2022-07-18T03:26:39;6.05;;;1.52;;
17794;SDS011;9021;50.882;4.326;2022-07-18T03:29:05;2.53;;;1.20;;
17794;SDS011;9021;50.882;4.326;2022-07-18T03:31:31;5.22;;;1.70;;
17794;SDS011;9021;50.882;4.326;2022-07-18T03:33:57;4.80;;;1.58;;
17794;SDS011;9021;50.882;4.326;2022-07-18T03:36:22;8.93;;;1.40;;
17794;SDS011;9021;50.882;4.326;2022-07-18T03:38:48;8.07;;;1.70;;
17794;SDS011;9021;50.882;4.326;2022-07-18T03:41:14;7.50;;;2.40;;
17794;SDS011;9021;50.882;4.326;2022-07-18T03:43:39;3.08;;;1.45;;
17794;SDS011;9021;50.882;4.326;2022-07-18T03:46:05;4.05;;;2.17;;
17794;SDS011;9021;50.882;4.326;2022-07-18T03:48:31;3.97;;;1.83;;
17794;SDS011;9021;50.882;4.326;2022-07-18T03:50:58;6.70;;;1.70;;
17794;SDS011;9021;50.882;4.326;2022-07-18T03:55:49;6.57;;;1.75;;
17794;SDS011;9021;50.882;4.326;2022-07-18T03:58:15;5.07;;;1.77;;
17794;SDS011;9021;50.882;4.326;2022-07-18T04:00:41;4.68;;;1.58;;
17794;SDS011;9021;50.882;4.326;2022-07-18T04:03:06;6.78;;;2.08;;
17794;SDS011;9021;50.882;4.326;2022-07-18T04:05:32;5.50;;;1.40;;
17794;SDS011;9021;50.882;4.326;2022-07-18T04:07:58;4.38;;;1.80;;
17794;SDS011;9021;50.882;4.326;2022-07-18T04:10:24;5.88;;;2.00;;
17794;SDS011;9021;50.882;4.326;2022-07-18T04:12:53;4.35;;;1.38;;
17794;SDS011;9021;50.882;4.326;2022-07-18T04:15:20;2.92;;;1.60;;
17794;SDS011;9021;50.882;4.326;2022-07-18T04:17:47;5.03;;;1.60;;
17794;SDS011;9021;50.882;4.326;2022-07-18T04:20:14;4.50;;;1.90;;
17794;SDS011;9021;50.882;4.326;2022-07-18T04:25:15;5.35;;;1.85;;
17794;SDS011;9021;50.882;4.326;2022-07-18T04:27:41;8.18;;;1.98;;
17794;SDS011;9021;50.882;4.326;2022-07-18T04:30:07;4.55;;;1.60;;
17794;SDS011;9021;50.882;4.326;2022-07-18T04:32:33;5.03;;;2.00;;
17794;SDS011;9021;50.882;4.326;2022-07-18T04:34:59;9.35;;;1.52;;
17794;SDS011;9021;50.882;4.326;2022-07-18T04:37:24;3.65;;;1.52;;
17794;SDS011;9021;50.882;4.326;2022-07-18T04:39:50;4.18;;;2.03;;
17794;SDS011;9021;50.882;4.326;2022-07-18T04:42:16;4.20;;;1.75;;
17794;SDS011;9021;50.882;4.326;2022-07-18T04:44:41;5.78;;;1.95;;
17794;SDS011;9021;50.882;4.326;2022-07-18T04:47:07;6.78;;;1.92;;
17794;SDS011;9021;50.882;4.326;2022-07-18T04:49:32;7.68;;;2.00;;
17794;SDS011;9021;50.882;4.326;2022-07-18T04:51:58;3.85;;;1.95;;
17794;SDS011;9021;50.882;4.326;2022-07-18T04:54:24;5.10;;;1.90;;
17794;SDS011;9021;50.882;4.326;2022-07-18T04:56:50;5.15;;;1.45;;
17794;SDS011;9021;50.882;4.326;2022-07-18T04:59:15;5.70;;;1.88;;
17794;SDS011;9021;50.882;4.326;2022-07-18T05:01:41;6.95;;;2.03;;
17794;SDS011;9021;50.882;4.326;2022-07-18T05:04:06;4.57;;;1.70;;
17794;SDS011;9021;50.882;4.326;2022-07-18T05:06:32;5.82;;;1.77;;
17794;SDS011;9021;50.882;4.326;2022-07-18T05:08:58;6.63;;;2.05;;
17794;SDS011;9021;50.882;4.326;2022-07-18T05:11:23;4.57;;;2.10;;
17794;SDS011;9021;50.882;4.326;2022-07-18T05:13:49;6.03;;;1.88;;
17794;SDS011;9021;50.882;4.326;2022-07-18T05:16:15;4.13;;;1.70;;
17794;SDS011;9021;50.882;4.326;2022-07-18T05:18:40;6.63;;;1.90;;
17794;SDS011;9021;50.882;4.326;2022-07-18T05:21:06;7.00;;;1.90;;
17794;SDS011;9021;50.882;4.326;2022-07-18T05:23:31;5.28;;;2.10;;
17794;SDS011;9021;50.882;4.326;2022-07-18T05:25:57;8.57;;;2.28;;
17794;SDS011;9021;50.882;4.326;2022-07-18T05:28:23;6.30;;;2.45;;
17794;SDS011;9021;50.882;4.326;2022-07-18T05:30:48;8.13;;;2.03;;
17794;SDS011;9021;50.882;4.326;2022-07-18T05:33:14;6.57;;;2.17;;
17794;SDS011;9021;50.882;4.326;2022-07-18T05:35:40;6.60;;;2.60;;
17794;SDS011;9021;50.882;4.326;2022-07-18T05:38:05;4.70;;;2.05;;
17794;SDS011;9021;50.882;4.326;2022-07-18T05:40:31;6.22;;;2.13;;
17794;SDS011;9021;50.882;4.326;2022-07-18T05:42:57;4.20;;;2.10;;
17794;SDS011;9021;50.882;4.326;2022-07-18T05:45:23;4.72;;;1.92;;
17794;SDS011;9021;50.882;4.326;2022-07-18T05:47:49;5.47;;;1.90;;
17794;SDS011;9021;50.882;4.326;2022-07-18T05:50:14;3.20;;;2.05;;
17794;SDS011;9021;50.882;4.326;2022-07-18T05:52:40;3.20;;;2.28;;
17794;SDS011;9021;50.882;4.326;2022-07-18T05:55:06;4.47;;;2.33;;
17794;SDS011;9021;50.882;4.326;2022-07-18T05:57:33;5.20;;;2.70;;
17794;SDS011;9021;50.882;4.326;2022-07-18T05:59:59;10.40;;;2.90;;
17794;SDS011;9021;50.882;4.326;2022-07-18T06:02:25;7.40;;;2.00;;
17794;SDS011;9021;50.882;4.326;2022-07-18T06:04:50;9.68;;;2.80;;
17794;SDS011;9021;50.882;4.326;2022-07-18T06:07:16;4.68;;;2.28;;
17794;SDS011;9021;50.882;4.326;2022-07-18T06:09:41;9.32;;;2.60;;
17794;SDS011;9021;50.882;4.326;2022-07-18T06:12:09;6.82;;;2.08;;
17794;SDS011;9021;50.882;4.326;2022-07-18T06:14:35;7.53;;;2.53;;
17794;SDS011;9021;50.882;4.326;2022-07-18T06:17:01;6.50;;;2.00;;
17794;SDS011;9021;50.882;4.326;2022-07-18T06:19:27;5.68;;;2.00;;
17794;SDS011;9021;50.882;4.326;2022-07-18T06:21:52;7.35;;;2.08;;
17794;SDS011;9021;50.882;4.326;2022-07-18T06:24:18;4.40;;;1.80;;
17794;SDS011;9021;50.882;4.326;2022-07-18T06:26:46;7.13;;;3.95;;
17794;SDS011;9021;50.882;4.326;2022-07-18T06:29:12;4.75;;;2.17;;
17794;SDS011;9021;50.882;4.326;2022-07-18T06:31:37;7.93;;;2.25;;
17794;SDS011;9021;50.882;4.326;2022-07-18T06:36:29;6.20;;;1.77;;
17794;SDS011;9021;50.882;4.326;2022-07-18T06:38:54;5.18;;;2.33;;
17794;SDS011;9021;50.882;4.326;2022-07-18T06:43:46;2.92;;;1.95;;
17794;SDS011;9021;50.882;4.326;2022-07-18T06:48:37;5.30;;;1.83;;
17794;SDS011;9021;50.882;4.326;2022-07-18T06:51:03;5.30;;;2.30;;
17794;SDS011;9021;50.882;4.326;2022-07-18T06:53:30;4.43;;;1.77;;
17794;SDS011;9021;50.882;4.326;2022-07-18T06:58:22;4.60;;;1.80;;
17794;SDS011;9021;50.882;4.326;2022-07-18T07:00:48;6.35;;;2.15;;
17794;SDS011;9021;50.882;4.326;2022-07-18T07:03:14;5.32;;;1.95;;
17794;SDS011;9021;50.882;4.326;2022-07-18T07:05:40;8.48;;;2.42;;
17794;SDS011;9021;50.882;4.326;2022-07-18T07:08:05;7.15;;;1.90;;
17794;SDS011;9021;50.882;4.326;2022-07-18T07:10:31;3.67;;;1.70;;
17794;SDS011;9021;50.882;4.326;2022-07-18T07:12:57;3.63;;;1.67;;
17794;SDS011;9021;50.882;4.326;2022-07-18T07:15:23;6.10;;;1.63;;
17794;SDS011;9021;50.882;4.326;2022-07-18T07:17:50;3.03;;;2.00;;
17794;SDS011;9021;50.882;4.326;2022-07-18T07:20:16;8.13;;;1.92;;
17794;SDS011;9021;50.882;4.326;2022-07-18T07:22:46;5.70;;;1.73;;
17794;SDS011;9021;50.882;4.326;2022-07-18T07:25:17;6.85;;;2.03;;
17794;SDS011;9021;50.882;4.326;2022-07-18T07:27:43;7.90;;;1.80;;
17794;SDS011;9021;50.882;4.326;2022-07-18T07:30:09;3.72;;;1.48;;
17794;SDS011;9021;50.882;4.326;2022-07-18T07:32:36;5.57;;;1.75;;
17794;SDS011;9021;50.882;4.326;2022-07-18T07:35:03;5.22;;;1.95;;
17794;SDS011;9021;50.882;4.326;2022-07-18T07:37:31;4.38;;;1.80;;
17794;SDS011;9021;50.882;4.326;2022-07-18T07:39:58;3.50;;;1.35;;
17794;SDS011;9021;50.882;4.326;2022-07-18T07:42:24;3.85;;;1.83;;
17794;SDS011;9021;50.882;4.326;2022-07-18T07:44:50;6.60;;;1.80;;
17794;SDS011;9021;50.882;4.326;2022-07-18T07:47:15;4.25;;;1.48;;
17794;SDS011;9021;50.882;4.326;2022-07-18T07:49:41;5.35;;;1.95;;
17794;SDS011;9021;50.882;4.326;2022-07-18T07:52:07;8.15;;;1.58;;
17794;SDS011;9021;50.882;4.326;2022-07-18T07:54:32;3.05;;;1.60;;
17794;SDS011;9021;50.882;4.326;2022-07-18T07:56:58;7.22;;;1.83;;
17794;SDS011;9021;50.882;4.326;2022-07-18T07:59:23;5.43;;;1.52;;
17794;SDS011;9021;50.882;4.326;2022-07-18T08:01:49;5.50;;;1.77;;
17794;SDS011;9021;50.882;4.326;2022-07-18T08:04:15;7.43;;;1.73;;
17794;SDS011;9021;50.882;4.326;2022-07-18T08:06:41;4.07;;;1.63;;
17794;SDS011;9021;50.882;4.326;2022-07-18T08:09:06;4.80;;;1.50;;
17794;SDS011;9021;50.882;4.326;2022-07-18T08:11:33;6.15;;;1.90;;
17794;SDS011;9021;50.882;4.326;2022-07-18T08:13:59;5.65;;;1.80;;
17794;SDS011;9021;50.882;4.326;2022-07-18T08:16:24;7.75;;;1.60;;
17794;SDS011;9021;50.882;4.326;2022-07-18T08:18:50;11.85;;;1.92;;
17794;SDS011;9021;50.882;4.326;2022-07-18T08:21:16;7.60;;;2.40;;
17794;SDS011;9021;50.882;4.326;2022-07-18T08:23:41;6.57;;;1.50;;
17794;SDS011;9021;50.882;4.326;2022-07-18T08:26:08;10.43;;;1.77;;
17794;SDS011;9021;50.882;4.326;2022-07-18T08:28:33;6.30;;;2.00;;
17794;SDS011;9021;50.882;4.326;2022-07-18T08:30:59;4.03;;;1.45;;
17794;SDS011;9021;50.882;4.326;2022-07-18T08:33:25;5.43;;;1.45;;
17794;SDS011;9021;50.882;4.326;2022-07-18T08:35:50;6.00;;;1.60;;
17794;SDS011;9021;50.882;4.326;2022-07-18T08:38:16;4.95;;;1.45;;
17794;SDS011;9021;50.882;4.326;2022-07-18T08:40:41;5.45;;;1.48;;
17794;SDS011;9021;50.882;4.326;2022-07-18T08:43:10;4.25;;;1.40;;
17794;SDS011;9021;50.882;4.326;2022-07-18T08:45:36;4.15;;;1.20;;
17794;SDS011;9021;50.882;4.326;2022-07-18T08:48:02;4.47;;;1.30;;
17794;SDS011;9021;50.882;4.326;2022-07-18T08:50:27;4.45;;;1.27;;
17794;SDS011;9021;50.882;4.326;2022-07-18T08:52:53;4.68;;;1.42;;
17794;SDS011;9021;50.882;4.326;2022-07-18T08:55:21;3.65;;;1.27;;
17794;SDS011;9021;50.882;4.326;2022-07-18T08:57:46;3.92;;;1.20;;
17794;SDS011;9021;50.882;4.326;2022-07-18T09:00:12;2.92;;;1.55;;
17794;SDS011;9021;50.882;4.326;2022-07-18T09:02:38;3.42;;;1.20;;
17794;SDS011;9021;50.882;4.326;2022-07-18T09:05:04;4.85;;;1.48;;
17794;SDS011;9021;50.882;4.326;2022-07-18T09:07:31;4.68;;;1.48;;
17794;SDS011;9021;50.882;4.326;2022-07-18T09:10:01;4.32;;;1.13;;
17794;SDS011;9021;50.882;4.326;2022-07-18T09:12:29;2.83;;;1.00;;
17794;SDS011;9021;50.882;4.326;2022-07-18T09:15:07;2.53;;;1.02;;
17794;SDS011;9021;50.882;4.326;2022-07-18T09:17:38;4.50;;;1.10;;
17794;SDS011;9021;50.882;4.326;2022-07-18T09:20:08;6.45;;;1.10;;
17794;SDS011;9021;50.882;4.326;2022-07-18T09:27:35;2.30;;;1.30;;
17794;SDS011;9021;50.882;4.326;2022-07-18T09:32:36;5.53;;;1.70;;
17794;SDS011;9021;50.882;4.326;2022-07-18T09:35:10;4.25;;;1.30;;
17794;SDS011;9021;50.882;4.326;2022-07-18T09:37:37;4.20;;;1.10;;
17794;SDS011;9021;50.882;4.326;2022-07-18T09:40:14;2.97;;;0.93;;
17794;SDS011;9021;50.882;4.326;2022-07-18T09:42:48;5.15;;;1.00;;
17794;SDS011;9021;50.882;4.326;2022-07-18T09:45:15;4.35;;;0.93;;
17794;SDS011;9021;50.882;4.326;2022-07-18T09:47:48;5.55;;;1.00;;
17794;SDS011;9021;50.882;4.326;2022-07-18T09:50:19;2.83;;;0.70;;
17794;SDS011;9021;50.882;4.326;2022-07-18T09:52:55;2.92;;;0.77;;
17794;SDS011;9021;50.882;4.326;2022-07-18T10:00:32;2.70;;;0.88;;
17794;SDS011;9021;50.882;4.326;2022-07-18T10:02:59;2.55;;;0.70;;
17794;SDS011;9021;50.882;4.326;2022-07-18T10:05:27;3.40;;;0.93;;
17794;SDS011;9021;50.882;4.326;2022-07-18T10:07:54;3.97;;;1.00;;
17794;SDS011;9021;50.882;4.326;2022-07-18T10:10:23;2.85;;;0.98;;
17794;SDS011;9021;50.882;4.326;2022-07-18T10:12:50;3.05;;;0.93;;
17794;SDS011;9021;50.882;4.326;2022-07-18T10:15:20;1.55;;;0.80;;
17794;SDS011;9021;50.882;4.326;2022-07-18T10:17:47;2.15;;;0.80;;
17794;SDS011;9021;50.882;4.326;2022-07-18T10:20:13;4.63;;;0.90;;
17794;SDS011;9021;50.882;4.326;2022-07-18T10:22:39;3.10;;;0.80;;
17794;SDS011;9021;50.882;4.326;2022-07-18T10:25:10;4.40;;;1.02;;
17794;SDS011;9021;50.882;4.326;2022-07-18T10:27:50;4.13;;;0.70;;
17794;SDS011;9021;50.882;4.326;2022-07-18T10:30:33;2.40;;;0.80;;
17794;SDS011;9021;50.882;4.326;2022-07-18T10:33:02;2.50;;;0.75;;
17794;SDS011;9021;50.882;4.326;2022-07-18T10:38:28;1.48;;;0.68;;
17794;SDS011;9021;50.882;4.326;2022-07-18T10:41:04;2.75;;;0.77;;
17794;SDS011;9021;50.882;4.326;2022-07-18T10:43:33;12.45;;;1.60;;
17794;SDS011;9021;50.882;4.326;2022-07-18T10:46:01;2.92;;;0.80;;
17794;SDS011;9021;50.882;4.326;2022-07-18T10:51:09;0.98;;;0.70;;
17794;SDS011;9021;50.882;4.326;2022-07-18T10:56:19;2.40;;;0.75;;
17794;SDS011;9021;50.882;4.326;2022-07-18T10:58:59;1.67;;;0.70;;
17794;SDS011;9021;50.882;4.326;2022-07-18T11:01:45;1.50;;;0.60;;
17794;SDS011;9021;50.882;4.326;2022-07-18T11:06:56;6.10;;;0.80;;
17794;SDS011;9021;50.882;4.326;2022-07-18T11:09:35;2.95;;;0.70;;
17794;SDS011;9021;50.882;4.326;2022-07-18T11:12:21;1.10;;;0.63;;
17794;SDS011;9021;50.882;4.326;2022-07-18T11:22:58;2.50;;;0.60;;
17794;SDS011;9021;50.882;4.326;2022-07-18T11:25:28;1.13;;;0.60;;
17794;SDS011;9021;50.882;4.326;2022-07-18T11:27:54;2.88;;;0.80;;
17794;SDS011;9021;50.882;4.326;2022-07-18T11:30:21;2.53;;;0.80;;
17794;SDS011;9021;50.882;4.326;2022-07-18T11:32:49;1.52;;;0.60;;
17794;SDS011;9021;50.882;4.326;2022-07-18T11:35:20;2.38;;;0.75;;
17794;SDS011;9021;50.882;4.326;2022-07-18T11:37:47;5.70;;;0.80;;
17794;SDS011;9021;50.882;4.326;2022-07-18T11:40:14;3.92;;;0.73;;
17794;SDS011;9021;50.882;4.326;2022-07-18T11:42:41;1.10;;;0.70;;
17794;SDS011;9021;50.882;4.326;2022-07-18T11:45:07;5.05;;;0.60;;
17794;SDS011;9021;50.882;4.326;2022-07-18T11:47:39;2.00;;;0.98;;
17794;SDS011;9021;50.882;4.326;2022-07-18T11:50:05;1.73;;;0.60;;
17794;SDS011;9021;50.882;4.326;2022-07-18T11:52:31;2.65;;;0.85;;
17794;SDS011;9021;50.882;4.326;2022-07-18T11:54:58;2.55;;;0.82;;
17794;SDS011;9021;50.882;4.326;2022-07-18T11:57:26;3.90;;;0.73;;
17794;SDS011;9021;50.882;4.326;2022-07-18T11:59:53;1.70;;;0.80;;
17794;SDS011;9021;50.882;4.326;2022-07-18T12:02:18;2.75;;;0.70;;
17794;SDS011;9021;50.882;4.326;2022-07-18T12:05:03;3.17;;;0.90;;
17794;SDS011;9021;50.882;4.326;2022-07-18T12:07:29;4.10;;;0.93;;
17794;SDS011;9021;50.882;4.326;2022-07-18T12:09:55;2.75;;;0.88;;
17794;SDS011;9021;50.882;4.326;2022-07-18T12:12:21;5.30;;;0.98;;
17794;SDS011;9021;50.882;4.326;2022-07-18T12:17:23;4.18;;;0.80;;
17794;SDS011;9021;50.882;4.326;2022-07-18T12:19:48;3.72;;;0.90;;
17794;SDS011;9021;50.882;4.326;2022-07-18T12:22:14;4.07;;;1.05;;
17794;SDS011;9021;50.882;4.326;2022-07-18T12:24:40;3.70;;;0.68;;
17794;SDS011;9021;50.882;4.326;2022-07-18T12:27:25;3.00;;;0.90;;
17794;SDS011;9021;50.882;4.326;2022-07-18T12:29:59;3.65;;;0.90;;
17794;SDS011;9021;50.882;4.326;2022-07-18T12:35:08;3.13;;;1.00;;
17794;SDS011;9021;50.882;4.326;2022-07-18T12:40:21;2.10;;;0.80;;
17794;SDS011;9021;50.882;4.326;2022-07-18T12:42:47;1.88;;;0.70;;
17794;SDS011;9021;50.882;4.326;2022-07-18T12:45:13;3.55;;;0.65;;
17794;SDS011;9021;50.882;4.326;2022-07-18T12:47:39;2.95;;;0.73;;
17794;SDS011;9021;50.882;4.326;2022-07-18T12:50:05;5.82;;;0.80;;
17794;SDS011;9021;50.882;4.326;2022-07-18T12:52:32;1.20;;;0.80;;
17794;SDS011;9021;50.882;4.326;2022-07-18T12:54:58;2.97;;;0.82;;
17794;SDS011;9021;50.882;4.326;2022-07-18T12:57:24;4.70;;;0.93;;
17794;SDS011;9021;50.882;4.326;2022-07-18T12:59:50;3.67;;;0.70;;
17794;SDS011;9021;50.882;4.326;2022-07-18T13:02:16;3.42;;;0.80;;
17794;SDS011;9021;50.882;4.326;2022-07-18T13:04:42;2.70;;;0.80;;
17794;SDS011;9021;50.882;4.326;2022-07-18T13:07:08;4.32;;;0.90;;
17794;SDS011;9021;50.882;4.326;2022-07-18T13:09:34;1.20;;;0.70;;
17794;SDS011;9021;50.882;4.326;2022-07-18T13:12:00;2.47;;;0.70;;
17794;SDS011;9021;50.882;4.326;2022-07-18T13:14:26;1.48;;;1.02;;
17794;SDS011;9021;50.882;4.326;2022-07-18T13:16:52;1.20;;;0.85;;
17794;SDS011;9021;50.882;4.326;2022-07-18T13:19:18;2.63;;;0.90;;
17794;SDS011;9021;50.882;4.326;2022-07-18T13:21:46;2.90;;;0.80;;
17794;SDS011;9021;50.882;4.326;2022-07-18T13:24:13;3.35;;;0.95;;
17794;SDS011;9021;50.882;4.326;2022-07-18T13:26:40;3.30;;;0.82;;
17794;SDS011;9021;50.882;4.326;2022-07-18T13:29:06;3.38;;;0.90;;
17794;SDS011;9021;50.882;4.326;2022-07-18T13:31:32;2.33;;;0.90;;
17794;SDS011;9021;50.882;4.326;2022-07-18T13:33:58;1.80;;;0.80;;
17794;SDS011;9021;50.882;4.326;2022-07-18T13:36:24;2.67;;;0.82;;
17794;SDS011;9021;50.882;4.326;2022-07-18T13:38:50;2.80;;;0.90;;
17794;SDS011;9021;50.882;4.326;2022-07-18T13:41:15;2.03;;;0.80;;
17794;SDS011;9021;50.882;4.326;2022-07-18T13:43:41;2.67;;;1.05;;
17794;SDS011;9021;50.882;4.326;2022-07-18T13:46:07;2.83;;;0.82;;
17794;SDS011;9021;50.882;4.326;2022-07-18T13:48:33;4.32;;;0.63;;
17794;SDS011;9021;50.882;4.326;2022-07-18T13:50:59;4.15;;;1.10;;
17794;SDS011;9021;50.882;4.326;2022-07-18T13:53:25;1.67;;;0.90;;
17794;SDS011;9021;50.882;4.326;2022-07-18T13:55:51;1.90;;;0.90;;
17794;SDS011;9021;50.882;4.326;2022-07-18T13:58:17;1.48;;;0.80;;
17794;SDS011;9021;50.882;4.326;2022-07-18T14:00:43;3.03;;;0.80;;
17794;SDS011;9021;50.882;4.326;2022-07-18T14:03:09;5.30;;;0.93;;
17794;SDS011;9021;50.882;4.326;2022-07-18T14:05:36;1.67;;;0.73;;
17794;SDS011;9021;50.882;4.326;2022-07-18T14:08:02;1.55;;;0.80;;
17794;SDS011;9021;50.882;4.326;2022-07-18T14:10:28;2.97;;;1.20;;
17794;SDS011;9021;50.882;4.326;2022-07-18T14:12:54;2.25;;;0.82;;
17794;SDS011;9021;50.882;4.326;2022-07-18T14:15:20;2.13;;;0.80;;
17794;SDS011;9021;50.882;4.326;2022-07-18T14:17:46;2.13;;;0.73;;
17794;SDS011;9021;50.882;4.326;2022-07-18T14:20:12;1.92;;;0.80;;
17794;SDS011;9021;50.882;4.326;2022-07-18T14:22:38;4.97;;;1.10;;
17794;SDS011;9021;50.882;4.326;2022-07-18T14:25:06;3.83;;;0.70;;
17794;SDS011;9021;50.882;4.326;2022-07-18T14:27:33;2.55;;;0.75;;
17794;SDS011;9021;50.882;4.326;2022-07-18T14:29:59;1.20;;;0.80;;
17794;SDS011;9021;50.882;4.326;2022-07-18T14:32:25;2.92;;;1.00;;
17794;SDS011;9021;50.882;4.326;2022-07-18T14:34:51;1.83;;;0.75;;
17794;SDS011;9021;50.882;4.326;2022-07-18T14:37:17;2.75;;;0.70;;
17794;SDS011;9021;50.882;4.326;2022-07-18T14:39:42;5.63;;;0.90;;
17794;SDS011;9021;50.882;4.326;2022-07-18T14:42:08;3.30;;;0.90;;
17794;SDS011;9021;50.882;4.326;2022-07-18T14:44:34;4.68;;;1.08;;
17794;SDS011;9021;50.882;4.326;2022-07-18T14:47:00;1.52;;;0.73;;
17794;SDS011;9021;50.882;4.326;2022-07-18T14:49:25;4.18;;;0.90;;
17794;SDS011;9021;50.882;4.326;2022-07-18T14:51:51;2.80;;;0.80;;
17794;SDS011;9021;50.882;4.326;2022-07-18T14:54:17;4.65;;;0.70;;
17794;SDS011;9021;50.882;4.326;2022-07-18T14:56:43;2.47;;;1.00;;
17794;SDS011;9021;50.882;4.326;2022-07-18T14:59:08;1.60;;;0.70;;
17794;SDS011;9021;50.882;4.326;2022-07-18T15:01:34;1.80;;;1.05;;
17794;SDS011;9021;50.882;4.326;2022-07-18T15:04:00;5.50;;;1.33;;
17794;SDS011;9021;50.882;4.326;2022-07-18T15:06:25;1.15;;;0.65;;
17794;SDS011;9021;50.882;4.326;2022-07-18T15:08:51;3.90;;;0.70;;
17794;SDS011;9021;50.882;4.326;2022-07-18T15:11:17;6.55;;;0.90;;
17794;SDS011;9021;50.882;4.326;2022-07-18T15:13:46;3.08;;;0.73;;
17794;SDS011;9021;50.882;4.326;2022-07-18T15:16:11;2.22;;;0.77;;
17794;SDS011;9021;50.882;4.326;2022-07-18T15:18:38;0.93;;;0.68;;
17794;SDS011;9021;50.882;4.326;2022-07-18T15:21:04;3.15;;;0.70;;
17794;SDS011;9021;50.882;4.326;2022-07-18T15:23:29;4.60;;;0.70;;
17794;SDS011;9021;50.882;4.326;2022-07-18T15:25:55;2.20;;;0.80;;
17794;SDS011;9021;50.882;4.326;2022-07-18T15:28:21;3.75;;;0.80;;
17794;SDS011;9021;50.882;4.326;2022-07-18T15:30:47;1.15;;;0.77;;
17794;SDS011;9021;50.882;4.326;2022-07-18T15:33:14;3.78;;;0.82;;
17794;SDS011;9021;50.882;4.326;2022-07-18T15:35:39;2.78;;;0.70;;
17794;SDS011;9021;50.882;4.326;2022-07-18T15:38:05;1.73;;;0.68;;
17794;SDS011;9021;50.882;4.326;2022-07-18T15:40:31;1.80;;;1.38;;
17794;SDS011;9021;50.882;4.326;2022-07-18T15:42:56;2.28;;;0.70;;
17794;SDS011;9021;50.882;4.326;2022-07-18T15:45:22;3.40;;;0.85;;
17794;SDS011;9021;50.882;4.326;2022-07-18T15:47:48;1.65;;;0.75;;
17794;SDS011;9021;50.882;4.326;2022-07-18T15:50:13;3.70;;;0.70;;
17794;SDS011;9021;50.882;4.326;2022-07-18T15:52:39;1.80;;;0.60;;
17794;SDS011;9021;50.882;4.326;2022-07-18T15:55:06;0.85;;;0.60;;
17794;SDS011;9021;50.882;4.326;2022-07-18T15:57:32;2.42;;;0.88;;
17794;SDS011;9021;50.882;4.326;2022-07-18T15:59:57;5.57;;;0.70;;
17794;SDS011;9021;50.882;4.326;2022-07-18T16:02:23;2.17;;;0.98;;
17794;SDS011;9021;50.882;4.326;2022-07-18T16:04:49;2.28;;;0.95;;
17794;SDS011;9021;50.882;4.326;2022-07-18T16:07:14;6.90;;;0.80;;
17794;SDS011;9021;50.882;4.326;2022-07-18T16:09:40;4.15;;;0.60;;
17794;SDS011;9021;50.882;4.326;2022-07-18T16:12:06;5.38;;;1.00;;
17794;SDS011;9021;50.882;4.326;2022-07-18T16:14:32;2.70;;;0.77;;